Terminal Aerodrome Forecast
Issued by NWS

Home | Current Version | Previous Version | Text Only | Print | Product List | Glossary On
Versions: 1 2 3 4 5 6 7 8 9 10 11 12 13 14 15
000
FTAK31 PAJN 190700 AAA
TAFASI
TAF AMD
PASI 190745Z 1908/2006 16024G40KT 5SM -RA SCT020 OVC030
      TEMPO 1908/1912 1 1/2SM RA BR BKN020 OVC030
     FM191500 21018G28KT 5SM -SHRA SCT015 OVC030
     FM192000 21012KT P6SM -SHRA SCT020 OVC030
     FM192300 19009KT P6SM -SHRA SCT020 OVC040=

USA.gov is the U.S. government's official web portal to all federal, state and local government web resources and services.